sensor_id;sensor_type;location;lat;lon;timestamp;P1;durP1;ratioP1;P2;durP2;ratioP2
70122;SDS011;57489;37.404;24.920;2023-05-02T00:04:57;6.23;;;3.80;;
70122;SDS011;57489;37.404;24.920;2023-05-02T00:09:58;6.55;;;3.83;;
70122;SDS011;57489;37.404;24.920;2023-05-02T00:14:58;6.87;;;3.33;;
70122;SDS011;57489;37.404;24.920;2023-05-02T00:19:59;6.50;;;4.00;;
70122;SDS011;57489;37.404;24.920;2023-05-02T00:24:59;6.20;;;3.63;;
70122;SDS011;57489;37.404;24.920;2023-05-02T00:30:00;6.85;;;3.67;;
70122;SDS011;57489;37.404;24.920;2023-05-02T00:35:00;9.23;;;3.97;;
70122;SDS011;57489;37.404;24.920;2023-05-02T00:40:01;9.00;;;4.03;;
70122;SDS011;57489;37.404;24.920;2023-05-02T00:45:02;6.80;;;3.67;;
70122;SDS011;57489;37.404;24.920;2023-05-02T00:50:03;6.57;;;3.53;;
70122;SDS011;57489;37.404;24.920;2023-05-02T00:55:04;6.13;;;3.83;;
70122;SDS011;57489;37.404;24.920;2023-05-02T01:00:05;5.93;;;3.80;;
70122;SDS011;57489;37.404;24.920;2023-05-02T01:15:41;6.87;;;3.83;;
70122;SDS011;57489;37.404;24.920;2023-05-02T01:20:42;6.32;;;3.60;;
70122;SDS011;57489;37.404;24.920;2023-05-02T01:26:23;6.13;;;3.20;;
70122;SDS011;57489;37.404;24.920;2023-05-02T01:31:18;7.63;;;4.00;;
70122;SDS011;57489;37.404;24.920;2023-05-02T01:36:18;5.53;;;3.40;;
70122;SDS011;57489;37.404;24.920;2023-05-02T01:41:20;5.40;;;2.80;;
70122;SDS011;57489;37.404;24.920;2023-05-02T01:46:25;6.53;;;3.55;;
70122;SDS011;57489;37.404;24.920;2023-05-02T01:51:27;6.40;;;4.07;;
70122;SDS011;57489;37.404;24.920;2023-05-02T01:56:31;6.07;;;3.47;;
70122;SDS011;57489;37.404;24.920;2023-05-02T02:01:35;6.05;;;3.60;;
70122;SDS011;57489;37.404;24.920;2023-05-02T02:06:36;6.93;;;3.95;;
70122;SDS011;57489;37.404;24.920;2023-05-02T02:11:42;6.43;;;3.73;;
70122;SDS011;57489;37.404;24.920;2023-05-02T02:16:46;6.78;;;3.63;;
70122;SDS011;57489;37.404;24.920;2023-05-02T02:21:49;6.05;;;3.65;;
70122;SDS011;57489;37.404;24.920;2023-05-02T02:26:50;6.67;;;4.20;;
70122;SDS011;57489;37.404;24.920;2023-05-02T02:31:51;7.87;;;4.03;;
70122;SDS011;57489;37.404;24.920;2023-05-02T02:37:02;6.00;;;3.90;;
70122;SDS011;57489;37.404;24.920;2023-05-02T02:47:43;7.75;;;3.70;;
70122;SDS011;57489;37.404;24.920;2023-05-02T02:52:52;6.73;;;4.00;;
70122;SDS011;57489;37.404;24.920;2023-05-02T02:57:59;7.30;;;3.75;;
70122;SDS011;57489;37.404;24.920;2023-05-02T03:03:06;7.60;;;3.70;;
70122;SDS011;57489;37.404;24.920;2023-05-02T03:08:07;8.40;;;3.67;;
70122;SDS011;57489;37.404;24.920;2023-05-02T03:13:08;6.43;;;3.45;;
70122;SDS011;57489;37.404;24.920;2023-05-02T03:18:08;6.20;;;3.43;;
70122;SDS011;57489;37.404;24.920;2023-05-02T03:23:08;5.97;;;3.50;;
70122;SDS011;57489;37.404;24.920;2023-05-02T03:28:09;6.97;;;3.17;;
70122;SDS011;57489;37.404;24.920;2023-05-02T03:33:09;6.73;;;3.60;;
70122;SDS011;57489;37.404;24.920;2023-05-02T03:38:10;5.67;;;3.27;;
70122;SDS011;57489;37.404;24.920;2023-05-02T03:43:10;6.03;;;3.43;;
70122;SDS011;57489;37.404;24.920;2023-05-02T03:48:11;6.13;;;3.20;;
70122;SDS011;57489;37.404;24.920;2023-05-02T03:53:11;6.50;;;3.50;;
70122;SDS011;57489;37.404;24.920;2023-05-02T03:58:12;5.23;;;3.13;;
70122;SDS011;57489;37.404;24.920;2023-05-02T04:03:12;5.70;;;3.47;;
70122;SDS011;57489;37.404;24.920;2023-05-02T04:08:13;6.00;;;3.80;;
70122;SDS011;57489;37.404;24.920;2023-05-02T04:13:13;6.13;;;3.47;;
70122;SDS011;57489;37.404;24.920;2023-05-02T04:18:13;7.03;;;3.50;;
70122;SDS011;57489;37.404;24.920;2023-05-02T04:23:14;5.50;;;3.70;;
70122;SDS011;57489;37.404;24.920;2023-05-02T04:28:14;5.97;;;3.40;;
70122;SDS011;57489;37.404;24.920;2023-05-02T04:33:15;7.53;;;3.43;;
70122;SDS011;57489;37.404;24.920;2023-05-02T04:38:16;7.77;;;4.00;;
70122;SDS011;57489;37.404;24.920;2023-05-02T04:43:16;8.57;;;4.00;;
70122;SDS011;57489;37.404;24.920;2023-05-02T04:48:17;10.07;;;4.77;;
70122;SDS011;57489;37.404;24.920;2023-05-02T04:53:19;12.33;;;5.00;;
70122;SDS011;57489;37.404;24.920;2023-05-02T04:58:22;12.87;;;4.80;;
70122;SDS011;57489;37.404;24.920;2023-05-02T05:03:23;14.30;;;4.90;;
70122;SDS011;57489;37.404;24.920;2023-05-02T05:08:23;9.97;;;4.80;;
70122;SDS011;57489;37.404;24.920;2023-05-02T05:13:24;13.90;;;5.10;;
70122;SDS011;57489;37.404;24.920;2023-05-02T05:18:24;12.87;;;5.20;;
70122;SDS011;57489;37.404;24.920;2023-05-02T05:23:24;9.57;;;5.13;;
70122;SDS011;57489;37.404;24.920;2023-05-02T05:28:25;14.37;;;6.00;;
70122;SDS011;57489;37.404;24.920;2023-05-02T05:33:25;13.77;;;5.53;;
70122;SDS011;57489;37.404;24.920;2023-05-02T05:38:26;13.50;;;5.17;;
70122;SDS011;57489;37.404;24.920;2023-05-02T05:43:27;18.07;;;5.73;;
70122;SDS011;57489;37.404;24.920;2023-05-02T05:48:28;13.40;;;5.35;;
70122;SDS011;57489;37.404;24.920;2023-05-02T05:53:28;13.13;;;5.37;;
70122;SDS011;57489;37.404;24.920;2023-05-02T05:58:28;19.20;;;6.43;;
70122;SDS011;57489;37.404;24.920;2023-05-02T06:03:29;15.07;;;5.07;;
70122;SDS011;57489;37.404;24.920;2023-05-02T06:08:29;13.47;;;5.63;;
70122;SDS011;57489;37.404;24.920;2023-05-02T06:13:30;14.17;;;5.10;;
70122;SDS011;57489;37.404;24.920;2023-05-02T06:18:30;14.57;;;5.37;;
70122;SDS011;57489;37.404;24.920;2023-05-02T06:23:31;12.02;;;5.28;;
70122;SDS011;57489;37.404;24.920;2023-05-02T06:28:31;10.87;;;5.00;;
70122;SDS011;57489;37.404;24.920;2023-05-02T06:33:32;12.47;;;4.83;;
70122;SDS011;57489;37.404;24.920;2023-05-02T06:38:33;12.10;;;4.70;;
70122;SDS011;57489;37.404;24.920;2023-05-02T06:43:33;11.50;;;4.70;;
70122;SDS011;57489;37.404;24.920;2023-05-02T06:48:34;9.40;;;4.63;;
70122;SDS011;57489;37.404;24.920;2023-05-02T06:53:35;8.80;;;4.50;;
70122;SDS011;57489;37.404;24.920;2023-05-02T06:58:35;10.67;;;4.93;;
70122;SDS011;57489;37.404;24.920;2023-05-02T07:03:36;11.20;;;4.20;;
70122;SDS011;57489;37.404;24.920;2023-05-02T07:08:36;10.57;;;4.63;;
70122;SDS011;57489;37.404;24.920;2023-05-02T07:13:36;10.20;;;4.50;;
70122;SDS011;57489;37.404;24.920;2023-05-02T07:18:37;8.13;;;4.13;;
70122;SDS011;57489;37.404;24.920;2023-05-02T07:23:37;8.83;;;3.83;;
70122;SDS011;57489;37.404;24.920;2023-05-02T07:28:38;8.83;;;4.00;;
70122;SDS011;57489;37.404;24.920;2023-05-02T07:33:38;8.27;;;4.20;;
70122;SDS011;57489;37.404;24.920;2023-05-02T07:38:39;7.93;;;4.23;;
70122;SDS011;57489;37.404;24.920;2023-05-02T07:43:39;6.93;;;3.63;;
70122;SDS011;57489;37.404;24.920;2023-05-02T07:48:40;7.43;;;3.93;;
70122;SDS011;57489;37.404;24.920;2023-05-02T07:53:40;7.57;;;3.80;;
70122;SDS011;57489;37.404;24.920;2023-05-02T07:58:41;7.60;;;3.65;;
70122;SDS011;57489;37.404;24.920;2023-05-02T08:03:41;6.93;;;3.73;;
70122;SDS011;57489;37.404;24.920;2023-05-02T08:08:41;5.80;;;3.40;;
70122;SDS011;57489;37.404;24.920;2023-05-02T08:13:42;6.60;;;3.90;;
70122;SDS011;57489;37.404;24.920;2023-05-02T08:18:42;9.10;;;3.57;;
70122;SDS011;57489;37.404;24.920;2023-05-02T08:23:43;7.00;;;4.13;;
70122;SDS011;57489;37.404;24.920;2023-05-02T08:28:43;7.63;;;3.37;;
70122;SDS011;57489;37.404;24.920;2023-05-02T08:33:44;6.77;;;3.97;;
70122;SDS011;57489;37.404;24.920;2023-05-02T08:38:45;7.28;;;3.75;;
70122;SDS011;57489;37.404;24.920;2023-05-02T08:43:45;6.00;;;3.83;;
70122;SDS011;57489;37.404;24.920;2023-05-02T08:48:46;7.45;;;4.35;;
70122;SDS011;57489;37.404;24.920;2023-05-02T08:53:47;7.33;;;3.60;;
70122;SDS011;57489;37.404;24.920;2023-05-02T08:58:49;6.22;;;3.45;;
70122;SDS011;57489;37.404;24.920;2023-05-02T09:03:49;7.57;;;4.00;;
70122;SDS011;57489;37.404;24.920;2023-05-02T09:08:50;6.30;;;3.50;;
70122;SDS011;57489;37.404;24.920;2023-05-02T09:13:51;6.78;;;3.58;;
70122;SDS011;57489;37.404;24.920;2023-05-02T09:18:53;7.30;;;3.90;;
70122;SDS011;57489;37.404;24.920;2023-05-02T09:23:55;7.00;;;4.20;;
70122;SDS011;57489;37.404;24.920;2023-05-02T09:28:57;10.93;;;4.20;;
70122;SDS011;57489;37.404;24.920;2023-05-02T09:34:08;6.07;;;3.53;;
70122;SDS011;57489;37.404;24.920;2023-05-02T09:39:14;6.33;;;3.50;;
70122;SDS011;57489;37.404;24.920;2023-05-02T09:44:16;6.40;;;3.92;;
70122;SDS011;57489;37.404;24.920;2023-05-02T09:49:32;6.57;;;3.83;;
70122;SDS011;57489;37.404;24.920;2023-05-02T09:54:46;5.77;;;3.67;;
70122;SDS011;57489;37.404;24.920;2023-05-02T09:59:56;6.90;;;3.78;;
70122;SDS011;57489;37.404;24.920;2023-05-02T10:04:57;6.20;;;3.70;;
70122;SDS011;57489;37.404;24.920;2023-05-02T10:10:00;7.07;;;3.97;;
70122;SDS011;57489;37.404;24.920;2023-05-02T10:15:02;8.18;;;4.13;;
70122;SDS011;57489;37.404;24.920;2023-05-02T10:20:03;5.47;;;3.40;;
70122;SDS011;57489;37.404;24.920;2023-05-02T10:25:05;5.82;;;3.70;;
70122;SDS011;57489;37.404;24.920;2023-05-02T10:30:06;6.10;;;3.78;;
70122;SDS011;57489;37.404;24.920;2023-05-02T10:35:08;7.80;;;3.90;;
70122;SDS011;57489;37.404;24.920;2023-05-02T10:40:09;6.90;;;4.15;;
70122;SDS011;57489;37.404;24.920;2023-05-02T10:45:12;7.05;;;4.30;;
70122;SDS011;57489;37.404;24.920;2023-05-02T10:50:41;6.90;;;3.90;;
70122;SDS011;57489;37.404;24.920;2023-05-02T10:55:42;6.82;;;3.58;;
70122;SDS011;57489;37.404;24.920;2023-05-02T11:00:43;7.07;;;3.80;;
70122;SDS011;57489;37.404;24.920;2023-05-02T11:37:53;9.50;;;5.53;;
70122;SDS011;57489;37.404;24.920;2023-05-02T11:42:55;9.55;;;5.40;;
70122;SDS011;57489;37.404;24.920;2023-05-02T11:47:57;9.47;;;5.53;;
70122;SDS011;57489;37.404;24.920;2023-05-02T11:52:57;10.27;;;6.00;;
70122;SDS011;57489;37.404;24.920;2023-05-02T11:57:58;9.30;;;5.50;;
70122;SDS011;57489;37.404;24.920;2023-05-02T12:02:58;11.27;;;6.37;;
70122;SDS011;57489;37.404;24.920;2023-05-02T12:07:59;11.23;;;5.60;;
70122;SDS011;57489;37.404;24.920;2023-05-02T12:13:03;12.40;;;5.10;;
70122;SDS011;57489;37.404;24.920;2023-05-02T12:18:04;7.68;;;5.38;;
70122;SDS011;57489;37.404;24.920;2023-05-02T12:23:05;8.70;;;5.20;;
70122;SDS011;57489;37.404;24.920;2023-05-02T12:28:07;9.35;;;5.18;;
70122;SDS011;57489;37.404;24.920;2023-05-02T12:33:09;8.93;;;5.38;;
70122;SDS011;57489;37.404;24.920;2023-05-02T12:38:10;10.80;;;4.93;;
70122;SDS011;57489;37.404;24.920;2023-05-02T12:43:12;10.80;;;5.13;;
70122;SDS011;57489;37.404;24.920;2023-05-02T12:48:20;11.27;;;5.30;;
70122;SDS011;57489;37.404;24.920;2023-05-02T12:53:40;7.77;;;4.90;;
70122;SDS011;57489;37.404;24.920;2023-05-02T13:03:43;9.10;;;5.15;;
70122;SDS011;57489;37.404;24.920;2023-05-02T13:08:43;7.43;;;4.87;;
70122;SDS011;57489;37.404;24.920;2023-05-02T13:13:43;7.00;;;4.37;;
70122;SDS011;57489;37.404;24.920;2023-05-02T13:18:44;7.80;;;5.00;;
70122;SDS011;57489;37.404;24.920;2023-05-02T13:23:46;11.60;;;4.93;;
70122;SDS011;57489;37.404;24.920;2023-05-02T13:28:46;8.33;;;4.80;;
70122;SDS011;57489;37.404;24.920;2023-05-02T13:33:47;8.97;;;5.03;;
70122;SDS011;57489;37.404;24.920;2023-05-02T13:38:48;7.53;;;5.10;;
70122;SDS011;57489;37.404;24.920;2023-05-02T13:43:48;9.10;;;4.87;;
70122;SDS011;57489;37.404;24.920;2023-05-02T13:48:49;7.93;;;5.23;;
70122;SDS011;57489;37.404;24.920;2023-05-02T13:53:49;9.87;;;5.20;;
70122;SDS011;57489;37.404;24.920;2023-05-02T13:58:50;8.00;;;5.07;;
70122;SDS011;57489;37.404;24.920;2023-05-02T14:03:50;9.53;;;4.73;;
70122;SDS011;57489;37.404;24.920;2023-05-02T14:08:51;8.37;;;4.87;;
70122;SDS011;57489;37.404;24.920;2023-05-02T14:13:52;8.07;;;5.20;;
70122;SDS011;57489;37.404;24.920;2023-05-02T14:18:52;8.13;;;5.40;;
70122;SDS011;57489;37.404;24.920;2023-05-02T14:23:52;6.97;;;4.68;;
70122;SDS011;57489;37.404;24.920;2023-05-02T14:28:53;8.43;;;5.60;;
70122;SDS011;57489;37.404;24.920;2023-05-02T14:33:53;8.10;;;5.00;;
70122;SDS011;57489;37.404;24.920;2023-05-02T14:38:54;10.53;;;5.60;;
70122;SDS011;57489;37.404;24.920;2023-05-02T14:43:54;11.73;;;5.87;;
70122;SDS011;57489;37.404;24.920;2023-05-02T14:48:55;12.17;;;5.47;;
70122;SDS011;57489;37.404;24.920;2023-05-02T14:53:55;11.67;;;5.47;;
70122;SDS011;57489;37.404;24.920;2023-05-02T14:58:56;10.73;;;5.57;;
70122;SDS011;57489;37.404;24.920;2023-05-02T15:03:56;14.43;;;6.00;;
70122;SDS011;57489;37.404;24.920;2023-05-02T15:08:57;26.60;;;6.67;;
70122;SDS011;57489;37.404;24.920;2023-05-02T15:13:57;10.57;;;6.23;;
70122;SDS011;57489;37.404;24.920;2023-05-02T15:18:58;9.10;;;4.97;;
70122;SDS011;57489;37.404;24.920;2023-05-02T15:23:58;12.53;;;5.90;;
70122;SDS011;57489;37.404;24.920;2023-05-02T15:28:59;13.03;;;5.70;;
70122;SDS011;57489;37.404;24.920;2023-05-02T15:33:59;15.77;;;5.87;;
70122;SDS011;57489;37.404;24.920;2023-05-02T15:39:00;13.20;;;6.10;;
70122;SDS011;57489;37.404;24.920;2023-05-02T15:44:00;9.83;;;5.70;;
70122;SDS011;57489;37.404;24.920;2023-05-02T15:49:00;11.30;;;5.67;;
70122;SDS011;57489;37.404;24.920;2023-05-02T15:54:01;13.37;;;5.93;;
70122;SDS011;57489;37.404;24.920;2023-05-02T15:59:01;11.30;;;6.23;;
70122;SDS011;57489;37.404;24.920;2023-05-02T16:04:02;13.27;;;5.50;;
70122;SDS011;57489;37.404;24.920;2023-05-02T16:09:02;12.70;;;6.03;;
70122;SDS011;57489;37.404;24.920;2023-05-02T16:14:03;16.58;;;7.10;;
70122;SDS011;57489;37.404;24.920;2023-05-02T16:19:03;18.47;;;5.87;;
70122;SDS011;57489;37.404;24.920;2023-05-02T16:24:04;19.03;;;6.33;;
70122;SDS011;57489;37.404;24.920;2023-05-02T16:29:05;13.17;;;7.27;;
70122;SDS011;57489;37.404;24.920;2023-05-02T16:34:05;18.53;;;6.30;;
70122;SDS011;57489;37.404;24.920;2023-05-02T16:39:06;19.37;;;6.40;;
70122;SDS011;57489;37.404;24.920;2023-05-02T16:44:06;14.88;;;6.38;;
70122;SDS011;57489;37.404;24.920;2023-05-02T16:49:07;17.23;;;5.80;;
70122;SDS011;57489;37.404;24.920;2023-05-02T16:54:07;17.80;;;7.33;;
70122;SDS011;57489;37.404;24.920;2023-05-02T16:59:08;11.67;;;6.73;;
70122;SDS011;57489;37.404;24.920;2023-05-02T17:04:08;14.03;;;6.63;;
70122;SDS011;57489;37.404;24.920;2023-05-02T17:09:08;17.00;;;6.17;;
70122;SDS011;57489;37.404;24.920;2023-05-02T17:14:09;11.60;;;6.10;;
70122;SDS011;57489;37.404;24.920;2023-05-02T17:19:09;14.97;;;6.43;;
70122;SDS011;57489;37.404;24.920;2023-05-02T17:24:10;14.80;;;6.20;;
70122;SDS011;57489;37.404;24.920;2023-05-02T17:29:10;10.30;;;5.78;;
70122;SDS011;57489;37.404;24.920;2023-05-02T17:34:11;19.90;;;6.20;;
70122;SDS011;57489;37.404;24.920;2023-05-02T17:39:11;12.57;;;5.47;;
70122;SDS011;57489;37.404;24.920;2023-05-02T17:44:12;9.20;;;5.83;;
70122;SDS011;57489;37.404;24.920;2023-05-02T17:49:12;13.53;;;6.00;;
70122;SDS011;57489;37.404;24.920;2023-05-02T17:54:13;12.90;;;6.03;;
70122;SDS011;57489;37.404;24.920;2023-05-02T17:59:13;12.43;;;6.10;;
70122;SDS011;57489;37.404;24.920;2023-05-02T18:04:14;17.30;;;6.23;;
70122;SDS011;57489;37.404;24.920;2023-05-02T18:09:14;34.10;;;6.80;;
70122;SDS011;57489;37.404;24.920;2023-05-02T18:14:15;14.98;;;6.50;;
70122;SDS011;57489;37.404;24.920;2023-05-02T18:19:15;13.30;;;6.17;;
70122;SDS011;57489;37.404;24.920;2023-05-02T18:24:16;12.90;;;6.00;;
70122;SDS011;57489;37.404;24.920;2023-05-02T18:29:16;10.10;;;5.40;;
70122;SDS011;57489;37.404;24.920;2023-05-02T18:34:17;10.25;;;5.53;;
70122;SDS011;57489;37.404;24.920;2023-05-02T18:39:18;9.67;;;5.83;;
70122;SDS011;57489;37.404;24.920;2023-05-02T18:44:18;8.50;;;5.30;;
70122;SDS011;57489;37.404;24.920;2023-05-02T18:49:19;11.33;;;5.90;;
70122;SDS011;57489;37.404;24.920;2023-05-02T18:54:19;11.43;;;5.80;;
70122;SDS011;57489;37.404;24.920;2023-05-02T18:59:20;10.63;;;5.80;;
70122;SDS011;57489;37.404;24.920;2023-05-02T19:04:20;11.00;;;5.63;;
70122;SDS011;57489;37.404;24.920;2023-05-02T19:09:21;10.87;;;5.30;;
70122;SDS011;57489;37.404;24.920;2023-05-02T19:14:21;9.33;;;5.73;;
70122;SDS011;57489;37.404;24.920;2023-05-02T19:19:22;10.57;;;5.67;;
70122;SDS011;57489;37.404;24.920;2023-05-02T19:24:22;12.80;;;6.23;;
70122;SDS011;57489;37.404;24.920;2023-05-02T19:29:23;9.07;;;5.63;;
70122;SDS011;57489;37.404;24.920;2023-05-02T19:34:23;9.17;;;5.93;;
70122;SDS011;57489;37.404;24.920;2023-05-02T19:39:24;11.63;;;5.63;;
70122;SDS011;57489;37.404;24.920;2023-05-02T19:44:24;10.10;;;6.10;;
70122;SDS011;57489;37.404;24.920;2023-05-02T19:49:25;8.67;;;5.50;;
70122;SDS011;57489;37.404;24.920;2023-05-02T19:54:25;8.13;;;5.23;;
70122;SDS011;57489;37.404;24.920;2023-05-02T19:59:26;9.37;;;5.57;;
70122;SDS011;57489;37.404;24.920;2023-05-02T20:04:26;8.80;;;5.37;;
70122;SDS011;57489;37.404;24.920;2023-05-02T20:09:27;7.13;;;4.30;;
70122;SDS011;57489;37.404;24.920;2023-05-02T20:14:27;7.50;;;5.10;;
70122;SDS011;57489;37.404;24.920;2023-05-02T20:19:28;7.97;;;4.73;;
70122;SDS011;57489;37.404;24.920;2023-05-02T20:24:28;8.67;;;5.53;;
70122;SDS011;57489;37.404;24.920;2023-05-02T20:29:29;7.93;;;4.87;;
70122;SDS011;57489;37.404;24.920;2023-05-02T20:34:29;12.43;;;6.93;;
70122;SDS011;57489;37.404;24.920;2023-05-02T20:39:33;9.10;;;5.57;;
70122;SDS011;57489;37.404;24.920;2023-05-02T20:44:33;8.83;;;5.23;;
70122;SDS011;57489;37.404;24.920;2023-05-02T20:49:34;8.48;;;5.40;;
70122;SDS011;57489;37.404;24.920;2023-05-02T20:54:34;10.90;;;4.70;;
70122;SDS011;57489;37.404;24.920;2023-05-02T20:59:34;14.07;;;5.37;;
70122;SDS011;57489;37.404;24.920;2023-05-02T21:04:35;8.77;;;5.73;;
70122;SDS011;57489;37.404;24.920;2023-05-02T21:09:36;9.40;;;6.17;;
70122;SDS011;57489;37.404;24.920;2023-05-02T21:14:36;9.33;;;5.10;;
70122;SDS011;57489;37.404;24.920;2023-05-02T21:19:36;8.80;;;6.27;;
70122;SDS011;57489;37.404;24.920;2023-05-02T21:24:37;8.87;;;5.63;;
70122;SDS011;57489;37.404;24.920;2023-05-02T21:29:37;8.97;;;4.93;;
70122;SDS011;57489;37.404;24.920;2023-05-02T21:34:38;8.17;;;5.10;;
70122;SDS011;57489;37.404;24.920;2023-05-02T21:39:38;10.37;;;4.97;;
70122;SDS011;57489;37.404;24.920;2023-05-02T21:44:39;10.83;;;5.40;;
70122;SDS011;57489;37.404;24.920;2023-05-02T21:49:39;7.83;;;4.97;;
70122;SDS011;57489;37.404;24.920;2023-05-02T21:54:39;10.20;;;4.80;;
70122;SDS011;57489;37.404;24.920;2023-05-02T21:59:40;7.20;;;4.83;;
70122;SDS011;57489;37.404;24.920;2023-05-02T22:04:40;9.20;;;5.23;;
70122;SDS011;57489;37.404;24.920;2023-05-02T22:09:41;9.43;;;4.77;;
70122;SDS011;57489;37.404;24.920;2023-05-02T22:14:41;10.40;;;5.10;;
70122;SDS011;57489;37.404;24.920;2023-05-02T22:19:42;8.37;;;5.20;;
70122;SDS011;57489;37.404;24.920;2023-05-02T22:24:42;9.07;;;5.40;;
70122;SDS011;57489;37.404;24.920;2023-05-02T22:29:42;8.57;;;5.33;;
70122;SDS011;57489;37.404;24.920;2023-05-02T22:34:43;8.13;;;5.17;;
70122;SDS011;57489;37.404;24.920;2023-05-02T22:39:43;9.03;;;5.43;;
70122;SDS011;57489;37.404;24.920;2023-05-02T22:44:49;9.18;;;5.25;;
70122;SDS011;57489;37.404;24.920;2023-05-02T22:49:49;9.73;;;5.50;;
70122;SDS011;57489;37.404;24.920;2023-05-02T22:54:50;9.07;;;5.40;;
70122;SDS011;57489;37.404;24.920;2023-05-02T22:59:50;10.17;;;5.20;;
70122;SDS011;57489;37.404;24.920;2023-05-02T23:04:51;8.37;;;5.23;;
70122;SDS011;57489;37.404;24.920;2023-05-02T23:09:51;8.70;;;5.37;;
70122;SDS011;57489;37.404;24.920;2023-05-02T23:14:52;7.83;;;5.23;;
70122;SDS011;57489;37.404;24.920;2023-05-02T23:19:53;8.00;;;4.87;;
70122;SDS011;57489;37.404;24.920;2023-05-02T23:24:53;7.77;;;4.90;;
70122;SDS011;57489;37.404;24.920;2023-05-02T23:29:54;8.77;;;5.40;;
70122;SDS011;57489;37.404;24.920;2023-05-02T23:34:54;7.20;;;4.67;;
70122;SDS011;57489;37.404;24.920;2023-05-02T23:39:55;7.80;;;4.90;;
70122;SDS011;57489;37.404;24.920;2023-05-02T23:44:56;8.13;;;4.80;;
70122;SDS011;57489;37.404;24.920;2023-05-02T23:49:56;7.40;;;5.00;;
70122;SDS011;57489;37.404;24.920;2023-05-02T23:54:56;7.73;;;5.10;;
70122;SDS011;57489;37.404;24.920;2023-05-02T23:59:57;8.20;;;5.33;;
